sensor_id;sensor_type;location;lat;lon;timestamp;temperature;humidity
1337;DHT22;662;48.814;9.318;2023-05-14T00:01:56;14.80;75.80
1337;DHT22;662;48.814;9.318;2023-05-14T00:04:22;14.80;75.80
1337;DHT22;662;48.814;9.318;2023-05-14T00:06:48;14.80;75.80
1337;DHT22;662;48.814;9.318;2023-05-14T00:09:13;14.80;75.80
1337;DHT22;662;48.814;9.318;2023-05-14T00:11:39;14.80;75.80
1337;DHT22;662;48.814;9.318;2023-05-14T00:14:05;14.70;75.70
1337;DHT22;662;48.814;9.318;2023-05-14T00:16:30;14.70;75.80
1337;DHT22;662;48.814;9.318;2023-05-14T00:18:56;14.80;76.00
1337;DHT22;662;48.814;9.318;2023-05-14T00:21:21;14.70;75.90
1337;DHT22;662;48.814;9.318;2023-05-14T00:23:47;14.70;76.00
1337;DHT22;662;48.814;9.318;2023-05-14T00:26:13;14.70;76.10
1337;DHT22;662;48.814;9.318;2023-05-14T00:28:39;14.70;76.00
1337;DHT22;662;48.814;9.318;2023-05-14T00:31:04;14.70;75.90
1337;DHT22;662;48.814;9.318;2023-05-14T00:33:30;14.70;75.90
1337;DHT22;662;48.814;9.318;2023-05-14T00:35:55;14.70;75.90
1337;DHT22;662;48.814;9.318;2023-05-14T00:38:21;14.70;75.90
1337;DHT22;662;48.814;9.318;2023-05-14T00:40:48;14.70;75.90
1337;DHT22;662;48.814;9.318;2023-05-14T00:43:20;14.60;75.80
1337;DHT22;662;48.814;9.318;2023-05-14T00:45:52;14.60;75.80
1337;DHT22;662;48.814;9.318;2023-05-14T00:48:18;14.60;75.80
1337;DHT22;662;48.814;9.318;2023-05-14T00:50:45;14.60;75.80
1337;DHT22;662;48.814;9.318;2023-05-14T00:53:11;14.60;75.80
1337;DHT22;662;48.814;9.318;2023-05-14T00:55:40;14.60;75.80
1337;DHT22;662;48.814;9.318;2023-05-14T00:58:11;14.50;75.80
1337;DHT22;662;48.814;9.318;2023-05-14T01:00:38;14.50;75.80
1337;DHT22;662;48.814;9.318;2023-05-14T01:03:04;14.50;75.80
1337;DHT22;662;48.814;9.318;2023-05-14T01:05:54;14.40;75.80
1337;DHT22;662;48.814;9.318;2023-05-14T01:14:20;14.40;76.00
1337;DHT22;662;48.814;9.318;2023-05-14T01:16:49;14.30;76.00
1337;DHT22;662;48.814;9.318;2023-05-14T01:19:26;14.20;76.10
1337;DHT22;662;48.814;9.318;2023-05-14T01:21:53;14.20;76.30
1337;DHT22;662;48.814;9.318;2023-05-14T01:24:19;14.20;76.50
1337;DHT22;662;48.814;9.318;2023-05-14T01:26:45;14.20;76.70
1337;DHT22;662;48.814;9.318;2023-05-14T01:31:43;14.20;77.00
1337;DHT22;662;48.814;9.318;2023-05-14T01:34:11;14.20;77.00
1337;DHT22;662;48.814;9.318;2023-05-14T01:36:39;14.20;77.10
1337;DHT22;662;48.814;9.318;2023-05-14T01:39:06;14.20;77.30
1337;DHT22;662;48.814;9.318;2023-05-14T01:41:37;14.20;77.30
1337;DHT22;662;48.814;9.318;2023-05-14T01:44:04;14.20;77.40
1337;DHT22;662;48.814;9.318;2023-05-14T01:46:32;14.20;77.50
1337;DHT22;662;48.814;9.318;2023-05-14T01:48:59;14.10;77.30
1337;DHT22;662;48.814;9.318;2023-05-14T01:51:24;14.10;77.30
1337;DHT22;662;48.814;9.318;2023-05-14T01:53:50;14.10;77.40
1337;DHT22;662;48.814;9.318;2023-05-14T01:56:17;14.10;77.30
1337;DHT22;662;48.814;9.318;2023-05-14T01:58:42;14.10;77.30
1337;DHT22;662;48.814;9.318;2023-05-14T02:01:08;14.10;77.20
1337;DHT22;662;48.814;9.318;2023-05-14T02:03:34;14.10;77.30
1337;DHT22;662;48.814;9.318;2023-05-14T02:05:59;14.10;77.30
1337;DHT22;662;48.814;9.318;2023-05-14T02:08:25;14.10;77.30
1337;DHT22;662;48.814;9.318;2023-05-14T02:10:50;14.10;77.40
1337;DHT22;662;48.814;9.318;2023-05-14T02:13:16;14.10;77.50
1337;DHT22;662;48.814;9.318;2023-05-14T02:15:42;14.00;77.40
1337;DHT22;662;48.814;9.318;2023-05-14T02:18:07;14.00;77.40
1337;DHT22;662;48.814;9.318;2023-05-14T02:20:33;14.00;77.50
1337;DHT22;662;48.814;9.318;2023-05-14T02:22:58;14.00;77.50
1337;DHT22;662;48.814;9.318;2023-05-14T02:25:24;14.10;77.60
1337;DHT22;662;48.814;9.318;2023-05-14T02:27:50;14.00;77.60
1337;DHT22;662;48.814;9.318;2023-05-14T02:30:15;14.00;77.60
1337;DHT22;662;48.814;9.318;2023-05-14T02:32:41;14.00;77.70
1337;DHT22;662;48.814;9.318;2023-05-14T02:35:07;14.00;77.80
1337;DHT22;662;48.814;9.318;2023-05-14T02:37:33;14.00;77.80
1337;DHT22;662;48.814;9.318;2023-05-14T02:39:59;14.00;77.70
1337;DHT22;662;48.814;9.318;2023-05-14T02:42:25;14.00;77.60
1337;DHT22;662;48.814;9.318;2023-05-14T02:44:51;14.00;77.50
1337;DHT22;662;48.814;9.318;2023-05-14T02:47:17;14.00;77.40
1337;DHT22;662;48.814;9.318;2023-05-14T02:49:43;14.00;77.40
1337;DHT22;662;48.814;9.318;2023-05-14T02:52:08;13.90;77.30
1337;DHT22;662;48.814;9.318;2023-05-14T02:54:34;13.90;77.40
1337;DHT22;662;48.814;9.318;2023-05-14T02:56:59;13.90;78.20
1337;DHT22;662;48.814;9.318;2023-05-14T02:59:26;13.90;77.50
1337;DHT22;662;48.814;9.318;2023-05-14T03:01:51;13.90;77.40
1337;DHT22;662;48.814;9.318;2023-05-14T03:04:17;13.90;77.50
1337;DHT22;662;48.814;9.318;2023-05-14T03:06:43;13.90;77.50
1337;DHT22;662;48.814;9.318;2023-05-14T03:09:09;14.00;77.60
1337;DHT22;662;48.814;9.318;2023-05-14T03:11:34;13.90;77.40
1337;DHT22;662;48.814;9.318;2023-05-14T03:14:00;14.00;77.50
1337;DHT22;662;48.814;9.318;2023-05-14T03:16:26;13.90;77.40
1337;DHT22;662;48.814;9.318;2023-05-14T03:18:51;13.90;77.40
1337;DHT22;662;48.814;9.318;2023-05-14T03:21:17;13.90;77.30
1337;DHT22;662;48.814;9.318;2023-05-14T03:23:43;13.90;77.40
1337;DHT22;662;48.814;9.318;2023-05-14T03:26:09;14.00;77.60
1337;DHT22;662;48.814;9.318;2023-05-14T03:28:34;14.00;77.60
1337;DHT22;662;48.814;9.318;2023-05-14T03:31:00;14.00;77.70
1337;DHT22;662;48.814;9.318;2023-05-14T03:33:25;14.00;77.80
1337;DHT22;662;48.814;9.318;2023-05-14T03:35:51;14.00;77.80
1337;DHT22;662;48.814;9.318;2023-05-14T03:38:17;14.00;77.80
1337;DHT22;662;48.814;9.318;2023-05-14T03:40:43;14.00;77.80
1337;DHT22;662;48.814;9.318;2023-05-14T03:43:09;14.10;77.80
1337;DHT22;662;48.814;9.318;2023-05-14T03:45:35;14.10;77.70
1337;DHT22;662;48.814;9.318;2023-05-14T03:48:01;14.10;77.70
1337;DHT22;662;48.814;9.318;2023-05-14T03:50:27;14.10;77.70
1337;DHT22;662;48.814;9.318;2023-05-14T03:52:53;14.10;77.50
1337;DHT22;662;48.814;9.318;2023-05-14T03:55:19;14.10;77.20
1337;DHT22;662;48.814;9.318;2023-05-14T03:57:46;14.10;77.00
1337;DHT22;662;48.814;9.318;2023-05-14T04:00:12;14.10;76.90
1337;DHT22;662;48.814;9.318;2023-05-14T04:02:38;14.10;76.80
1337;DHT22;662;48.814;9.318;2023-05-14T04:05:04;14.10;76.70
1337;DHT22;662;48.814;9.318;2023-05-14T04:07:29;14.10;76.60
1337;DHT22;662;48.814;9.318;2023-05-14T04:09:55;14.10;76.80
1337;DHT22;662;48.814;9.318;2023-05-14T04:12:21;14.10;76.90
1337;DHT22;662;48.814;9.318;2023-05-14T04:14:46;14.10;76.90
1337;DHT22;662;48.814;9.318;2023-05-14T04:17:12;14.10;76.70
1337;DHT22;662;48.814;9.318;2023-05-14T04:19:37;14.10;76.30
1337;DHT22;662;48.814;9.318;2023-05-14T04:22:05;14.10;76.00
1337;DHT22;662;48.814;9.318;2023-05-14T04:24:30;14.10;75.80
1337;DHT22;662;48.814;9.318;2023-05-14T04:26:56;14.00;75.70
1337;DHT22;662;48.814;9.318;2023-05-14T04:29:22;14.00;75.80
1337;DHT22;662;48.814;9.318;2023-05-14T04:31:48;14.00;76.00
1337;DHT22;662;48.814;9.318;2023-05-14T04:34:14;14.00;76.00
1337;DHT22;662;48.814;9.318;2023-05-14T04:36:40;14.00;76.20
1337;DHT22;662;48.814;9.318;2023-05-14T04:39:06;14.00;76.30
1337;DHT22;662;48.814;9.318;2023-05-14T04:41:33;14.00;76.60
1337;DHT22;662;48.814;9.318;2023-05-14T04:44:00;14.00;76.80
1337;DHT22;662;48.814;9.318;2023-05-14T04:46:28;14.10;76.90
1337;DHT22;662;48.814;9.318;2023-05-14T04:48:54;14.10;76.80
1337;DHT22;662;48.814;9.318;2023-05-14T04:51:21;14.10;76.60
1337;DHT22;662;48.814;9.318;2023-05-14T04:53:47;14.10;76.50
1337;DHT22;662;48.814;9.318;2023-05-14T04:56:12;14.10;76.40
1337;DHT22;662;48.814;9.318;2023-05-14T04:58:38;14.20;76.40
1337;DHT22;662;48.814;9.318;2023-05-14T05:01:04;14.20;76.40
1337;DHT22;662;48.814;9.318;2023-05-14T05:03:30;14.20;76.30
1337;DHT22;662;48.814;9.318;2023-05-14T05:05:56;14.20;76.10
1337;DHT22;662;48.814;9.318;2023-05-14T05:08:21;14.20;75.80
1337;DHT22;662;48.814;9.318;2023-05-14T05:10:47;14.30;75.70
1337;DHT22;662;48.814;9.318;2023-05-14T05:13:13;14.30;75.40
1337;DHT22;662;48.814;9.318;2023-05-14T05:15:39;14.30;75.30
1337;DHT22;662;48.814;9.318;2023-05-14T05:18:05;14.30;75.10
1337;DHT22;662;48.814;9.318;2023-05-14T05:20:31;14.40;74.90
1337;DHT22;662;48.814;9.318;2023-05-14T05:22:57;14.40;74.80
1337;DHT22;662;48.814;9.318;2023-05-14T05:25:22;14.30;74.80
1337;DHT22;662;48.814;9.318;2023-05-14T05:27:48;14.40;74.80
1337;DHT22;662;48.814;9.318;2023-05-14T05:30:13;14.40;74.80
1337;DHT22;662;48.814;9.318;2023-05-14T05:32:39;14.40;74.90
1337;DHT22;662;48.814;9.318;2023-05-14T05:35:05;14.50;74.90
1337;DHT22;662;48.814;9.318;2023-05-14T05:37:31;14.50;74.80
1337;DHT22;662;48.814;9.318;2023-05-14T05:39:56;14.50;74.60
1337;DHT22;662;48.814;9.318;2023-05-14T05:42:22;14.50;74.40
1337;DHT22;662;48.814;9.318;2023-05-14T05:44:48;14.60;74.50
1337;DHT22;662;48.814;9.318;2023-05-14T05:47:13;14.60;74.20
1337;DHT22;662;48.814;9.318;2023-05-14T05:49:39;14.60;74.00
1337;DHT22;662;48.814;9.318;2023-05-14T05:52:04;14.60;73.90
1337;DHT22;662;48.814;9.318;2023-05-14T05:54:30;14.70;73.80
1337;DHT22;662;48.814;9.318;2023-05-14T05:56:57;14.70;73.50
1337;DHT22;662;48.814;9.318;2023-05-14T05:59:23;14.80;73.40
1337;DHT22;662;48.814;9.318;2023-05-14T06:01:49;14.80;73.10
1337;DHT22;662;48.814;9.318;2023-05-14T06:04:15;14.80;72.90
1337;DHT22;662;48.814;9.318;2023-05-14T06:06:41;14.90;72.80
1337;DHT22;662;48.814;9.318;2023-05-14T06:09:06;14.90;72.70
1337;DHT22;662;48.814;9.318;2023-05-14T06:11:34;15.00;72.80
1337;DHT22;662;48.814;9.318;2023-05-14T06:14:00;15.00;72.70
1337;DHT22;662;48.814;9.318;2023-05-14T06:16:26;15.10;72.70
1337;DHT22;662;48.814;9.318;2023-05-14T06:18:52;15.10;72.50
1337;DHT22;662;48.814;9.318;2023-05-14T06:21:18;15.20;72.30
1337;DHT22;662;48.814;9.318;2023-05-14T06:23:44;15.20;72.10
1337;DHT22;662;48.814;9.318;2023-05-14T06:26:10;15.20;71.70
1337;DHT22;662;48.814;9.318;2023-05-14T06:28:36;15.20;71.50
1337;DHT22;662;48.814;9.318;2023-05-14T06:31:03;15.20;71.40
1337;DHT22;662;48.814;9.318;2023-05-14T06:33:29;15.30;71.50
1337;DHT22;662;48.814;9.318;2023-05-14T06:35:59;15.30;71.30
1337;DHT22;662;48.814;9.318;2023-05-14T06:38:25;15.30;71.10
1337;DHT22;662;48.814;9.318;2023-05-14T06:40:51;15.30;70.90
1337;DHT22;662;48.814;9.318;2023-05-14T06:43:19;15.30;70.70
1337;DHT22;662;48.814;9.318;2023-05-14T06:45:51;15.30;70.60
1337;DHT22;662;48.814;9.318;2023-05-14T06:48:18;15.40;70.50
1337;DHT22;662;48.814;9.318;2023-05-14T06:50:45;15.40;70.30
1337;DHT22;662;48.814;9.318;2023-05-14T06:53:11;15.40;70.10
1337;DHT22;662;48.814;9.318;2023-05-14T06:55:37;15.50;70.10
1337;DHT22;662;48.814;9.318;2023-05-14T06:58:04;15.60;70.00
1337;DHT22;662;48.814;9.318;2023-05-14T07:00:30;15.60;69.80
1337;DHT22;662;48.814;9.318;2023-05-14T07:02:56;15.70;69.70
1337;DHT22;662;48.814;9.318;2023-05-14T07:05:22;15.70;69.50
1337;DHT22;662;48.814;9.318;2023-05-14T07:07:47;15.80;69.40
1337;DHT22;662;48.814;9.318;2023-05-14T07:10:13;15.80;69.20
1337;DHT22;662;48.814;9.318;2023-05-14T07:12:39;15.80;68.90
1337;DHT22;662;48.814;9.318;2023-05-14T07:15:05;15.90;69.00
1337;DHT22;662;48.814;9.318;2023-05-14T07:17:31;16.00;68.90
1337;DHT22;662;48.814;9.318;2023-05-14T07:19:57;16.10;68.80
1337;DHT22;662;48.814;9.318;2023-05-14T07:22:22;16.20;68.50
1337;DHT22;662;48.814;9.318;2023-05-14T07:24:48;16.20;68.30
1337;DHT22;662;48.814;9.318;2023-05-14T07:27:14;16.30;68.20
1337;DHT22;662;48.814;9.318;2023-05-14T07:29:41;16.40;67.80
1337;DHT22;662;48.814;9.318;2023-05-14T07:32:07;16.50;67.50
1337;DHT22;662;48.814;9.318;2023-05-14T07:34:33;16.60;67.30
1337;DHT22;662;48.814;9.318;2023-05-14T07:36:58;16.70;67.00
1337;DHT22;662;48.814;9.318;2023-05-14T07:39:24;16.80;66.80
1337;DHT22;662;48.814;9.318;2023-05-14T07:41:50;16.90;66.50
1337;DHT22;662;48.814;9.318;2023-05-14T07:44:16;17.00;66.90
1337;DHT22;662;48.814;9.318;2023-05-14T07:46:42;17.10;66.10
1337;DHT22;662;48.814;9.318;2023-05-14T07:49:08;17.10;65.70
1337;DHT22;662;48.814;9.318;2023-05-14T07:51:34;17.20;65.40
1337;DHT22;662;48.814;9.318;2023-05-14T07:54:00;17.20;65.00
1337;DHT22;662;48.814;9.318;2023-05-14T07:56:25;17.30;64.70
1337;DHT22;662;48.814;9.318;2023-05-14T07:58:51;17.30;64.20
1337;DHT22;662;48.814;9.318;2023-05-14T08:01:17;17.30;63.60
1337;DHT22;662;48.814;9.318;2023-05-14T08:03:43;17.20;63.10
1337;DHT22;662;48.814;9.318;2023-05-14T08:06:08;17.20;63.30
1337;DHT22;662;48.814;9.318;2023-05-14T08:08:34;17.30;63.60
1337;DHT22;662;48.814;9.318;2023-05-14T08:11:01;17.40;63.60
1337;DHT22;662;48.814;9.318;2023-05-14T08:13:27;17.50;63.10
1337;DHT22;662;48.814;9.318;2023-05-14T08:15:52;17.60;63.00
1337;DHT22;662;48.814;9.318;2023-05-14T08:18:18;17.80;63.10
1337;DHT22;662;48.814;9.318;2023-05-14T08:20:44;17.90;62.70
1337;DHT22;662;48.814;9.318;2023-05-14T08:23:10;18.10;62.60
1337;DHT22;662;48.814;9.318;2023-05-14T08:25:36;18.30;62.40
1337;DHT22;662;48.814;9.318;2023-05-14T08:28:01;18.40;62.10
1337;DHT22;662;48.814;9.318;2023-05-14T08:30:27;18.60;61.70
1337;DHT22;662;48.814;9.318;2023-05-14T08:32:53;18.70;61.50
1337;DHT22;662;48.814;9.318;2023-05-14T08:35:18;18.90;61.40
1337;DHT22;662;48.814;9.318;2023-05-14T08:37:44;19.10;60.80
1337;DHT22;662;48.814;9.318;2023-05-14T08:40:11;19.10;59.80
1337;DHT22;662;48.814;9.318;2023-05-14T08:42:40;19.20;59.10
1337;DHT22;662;48.814;9.318;2023-05-14T08:45:14;19.10;58.80
1337;DHT22;662;48.814;9.318;2023-05-14T08:47:41;19.20;59.00
1337;DHT22;662;48.814;9.318;2023-05-14T08:50:08;19.20;59.00
1337;DHT22;662;48.814;9.318;2023-05-14T08:52:34;19.20;58.90
1337;DHT22;662;48.814;9.318;2023-05-14T08:55:04;19.20;58.90
1337;DHT22;662;48.814;9.318;2023-05-14T08:57:34;19.20;58.90
1337;DHT22;662;48.814;9.318;2023-05-14T09:00:00;19.20;58.60
1337;DHT22;662;48.814;9.318;2023-05-14T09:02:30;19.30;58.90
1337;DHT22;662;48.814;9.318;2023-05-14T09:05:00;19.40;58.90
1337;DHT22;662;48.814;9.318;2023-05-14T09:07:27;19.40;58.70
1337;DHT22;662;48.814;9.318;2023-05-14T09:09:53;19.60;58.90
1337;DHT22;662;48.814;9.318;2023-05-14T09:12:19;19.70;58.70
1337;DHT22;662;48.814;9.318;2023-05-14T09:14:46;19.90;58.70
1337;DHT22;662;48.814;9.318;2023-05-14T09:17:13;20.20;58.50
1337;DHT22;662;48.814;9.318;2023-05-14T09:19:39;20.30;57.50
1337;DHT22;662;48.814;9.318;2023-05-14T09:22:10;20.40;56.60
1337;DHT22;662;48.814;9.318;2023-05-14T09:24:37;20.50;56.90
1337;DHT22;662;48.814;9.318;2023-05-14T09:27:06;20.50;56.70
1337;DHT22;662;48.814;9.318;2023-05-14T09:29:32;20.50;56.30
1337;DHT22;662;48.814;9.318;2023-05-14T09:31:59;20.40;56.00
1337;DHT22;662;48.814;9.318;2023-05-14T09:34:33;20.30;55.90
1337;DHT22;662;48.814;9.318;2023-05-14T09:37:00;20.30;55.90
1337;DHT22;662;48.814;9.318;2023-05-14T09:39:26;20.10;55.80
1337;DHT22;662;48.814;9.318;2023-05-14T09:41:52;20.00;56.10
1337;DHT22;662;48.814;9.318;2023-05-14T09:44:19;19.90;56.10
1337;DHT22;662;48.814;9.318;2023-05-14T09:46:46;19.80;56.10
1337;DHT22;662;48.814;9.318;2023-05-14T09:49:11;19.70;56.40
1337;DHT22;662;48.814;9.318;2023-05-14T09:51:37;19.70;56.70
1337;DHT22;662;48.814;9.318;2023-05-14T09:54:04;19.70;56.90
1337;DHT22;662;48.814;9.318;2023-05-14T09:56:32;19.60;56.90
1337;DHT22;662;48.814;9.318;2023-05-14T09:58:58;19.60;56.90
1337;DHT22;662;48.814;9.318;2023-05-14T10:01:24;19.50;56.60
1337;DHT22;662;48.814;9.318;2023-05-14T10:03:50;19.40;56.60
1337;DHT22;662;48.814;9.318;2023-05-14T10:06:18;19.30;56.80
1337;DHT22;662;48.814;9.318;2023-05-14T10:08:47;19.30;57.10
1337;DHT22;662;48.814;9.318;2023-05-14T10:11:35;19.30;57.30
1337;DHT22;662;48.814;9.318;2023-05-14T10:14:17;19.30;57.30
1337;DHT22;662;48.814;9.318;2023-05-14T10:16:52;19.30;57.50
1337;DHT22;662;48.814;9.318;2023-05-14T10:19:20;19.40;57.70
1337;DHT22;662;48.814;9.318;2023-05-14T10:21:55;19.50;57.60
1337;DHT22;662;48.814;9.318;2023-05-14T10:24:24;19.50;57.50
1337;DHT22;662;48.814;9.318;2023-05-14T10:26:50;19.50;57.50
1337;DHT22;662;48.814;9.318;2023-05-14T10:29:16;19.50;57.60
1337;DHT22;662;48.814;9.318;2023-05-14T10:31:52;19.50;57.80
1337;DHT22;662;48.814;9.318;2023-05-14T10:37:04;19.50;57.40
1337;DHT22;662;48.814;9.318;2023-05-14T10:39:53;19.60;57.40
1337;DHT22;662;48.814;9.318;2023-05-14T10:44:56;19.90;56.50
1337;DHT22;662;48.814;9.318;2023-05-14T10:47:26;20.00;56.10
1337;DHT22;662;48.814;9.318;2023-05-14T10:49:57;20.00;55.80
1337;DHT22;662;48.814;9.318;2023-05-14T10:52:26;20.10;55.70
1337;DHT22;662;48.814;9.318;2023-05-14T10:57:22;20.20;55.20
1337;DHT22;662;48.814;9.318;2023-05-14T10:59:49;20.40;55.30
1337;DHT22;662;48.814;9.318;2023-05-14T11:02:19;20.50;55.00
1337;DHT22;662;48.814;9.318;2023-05-14T11:04:51;20.70;55.00
1337;DHT22;662;48.814;9.318;2023-05-14T11:07:22;20.90;54.80
1337;DHT22;662;48.814;9.318;2023-05-14T11:09:49;21.10;54.60
1337;DHT22;662;48.814;9.318;2023-05-14T11:12:16;21.30;54.30
1337;DHT22;662;48.814;9.318;2023-05-14T11:14:42;21.40;53.90
1337;DHT22;662;48.814;9.318;2023-05-14T11:17:08;21.40;53.80
1337;DHT22;662;48.814;9.318;2023-05-14T11:19:34;21.30;53.60
1337;DHT22;662;48.814;9.318;2023-05-14T11:22:00;21.10;53.60
1337;DHT22;662;48.814;9.318;2023-05-14T11:24:26;21.00;54.00
1337;DHT22;662;48.814;9.318;2023-05-14T11:26:52;20.90;54.30
1337;DHT22;662;48.814;9.318;2023-05-14T11:29:20;20.90;54.40
1337;DHT22;662;48.814;9.318;2023-05-14T11:31:46;21.10;54.90
1337;DHT22;662;48.814;9.318;2023-05-14T11:34:12;22.00;54.90
1337;DHT22;662;48.814;9.318;2023-05-14T11:36:37;23.10;52.30
1337;DHT22;662;48.814;9.318;2023-05-14T11:39:03;24.20;51.00
1337;DHT22;662;48.814;9.318;2023-05-14T11:41:29;25.40;48.10
1337;DHT22;662;48.814;9.318;2023-05-14T11:43:55;26.50;46.60
1337;DHT22;662;48.814;9.318;2023-05-14T11:46:22;27.40;44.40
1337;DHT22;662;48.814;9.318;2023-05-14T11:48:48;28.20;42.10
1337;DHT22;662;48.814;9.318;2023-05-14T11:51:14;28.60;39.40
1337;DHT22;662;48.814;9.318;2023-05-14T11:53:40;28.50;38.60
1337;DHT22;662;48.814;9.318;2023-05-14T11:56:06;28.40;39.20
1337;DHT22;662;48.814;9.318;2023-05-14T11:58:32;28.50;39.00
1337;DHT22;662;48.814;9.318;2023-05-14T12:00:58;29.10;38.80
1337;DHT22;662;48.814;9.318;2023-05-14T12:03:24;29.70;38.10
1337;DHT22;662;48.814;9.318;2023-05-14T12:05:57;30.00;36.50
1337;DHT22;662;48.814;9.318;2023-05-14T12:08:28;30.00;35.20
1337;DHT22;662;48.814;9.318;2023-05-14T12:10:56;29.60;34.70
1337;DHT22;662;48.814;9.318;2023-05-14T12:13:27;29.00;35.30
1337;DHT22;662;48.814;9.318;2023-05-14T12:15:54;28.80;36.50
1337;DHT22;662;48.814;9.318;2023-05-14T12:18:23;28.70;36.20
1337;DHT22;662;48.814;9.318;2023-05-14T12:20:49;28.20;36.40
1337;DHT22;662;48.814;9.318;2023-05-14T12:23:23;27.50;37.10
1337;DHT22;662;48.814;9.318;2023-05-14T12:25:51;26.80;37.20
1337;DHT22;662;48.814;9.318;2023-05-14T12:28:18;26.10;38.40
1337;DHT22;662;48.814;9.318;2023-05-14T12:30:45;25.60;39.60
1337;DHT22;662;48.814;9.318;2023-05-14T12:33:12;25.20;40.00
1337;DHT22;662;48.814;9.318;2023-05-14T12:35:38;24.80;40.90
1337;DHT22;662;48.814;9.318;2023-05-14T12:38:05;24.60;41.80
1337;DHT22;662;48.814;9.318;2023-05-14T12:40:30;24.30;42.70
1337;DHT22;662;48.814;9.318;2023-05-14T12:42:56;24.10;43.20
1337;DHT22;662;48.814;9.318;2023-05-14T12:45:21;23.90;43.80
1337;DHT22;662;48.814;9.318;2023-05-14T12:47:47;23.70;43.90
1337;DHT22;662;48.814;9.318;2023-05-14T12:50:13;23.50;44.10
1337;DHT22;662;48.814;9.318;2023-05-14T12:52:39;23.30;44.50
1337;DHT22;662;48.814;9.318;2023-05-14T12:55:06;23.20;44.90
1337;DHT22;662;48.814;9.318;2023-05-14T12:57:31;23.30;45.40
1337;DHT22;662;48.814;9.318;2023-05-14T13:00:00;23.70;45.70
1337;DHT22;662;48.814;9.318;2023-05-14T13:02:25;23.90;44.70
1337;DHT22;662;48.814;9.318;2023-05-14T13:04:51;24.30;44.30
1337;DHT22;662;48.814;9.318;2023-05-14T13:07:17;24.50;43.50
1337;DHT22;662;48.814;9.318;2023-05-14T13:09:42;25.10;43.30
1337;DHT22;662;48.814;9.318;2023-05-14T13:12:08;25.80;42.40
1337;DHT22;662;48.814;9.318;2023-05-14T13:14:34;26.50;41.40
1337;DHT22;662;48.814;9.318;2023-05-14T13:17:01;27.20;39.60
1337;DHT22;662;48.814;9.318;2023-05-14T13:19:26;27.70;38.00
1337;DHT22;662;48.814;9.318;2023-05-14T13:21:52;28.00;37.10
1337;DHT22;662;48.814;9.318;2023-05-14T13:24:18;28.40;37.50
1337;DHT22;662;48.814;9.318;2023-05-14T13:26:43;28.60;36.90
1337;DHT22;662;48.814;9.318;2023-05-14T13:29:09;28.80;36.60
1337;DHT22;662;48.814;9.318;2023-05-14T13:31:36;28.90;36.20
1337;DHT22;662;48.814;9.318;2023-05-14T13:34:02;29.00;35.20
1337;DHT22;662;48.814;9.318;2023-05-14T13:36:28;28.50;34.80
1337;DHT22;662;48.814;9.318;2023-05-14T13:38:55;27.80;35.80
1337;DHT22;662;48.814;9.318;2023-05-14T13:41:21;27.40;37.60
1337;DHT22;662;48.814;9.318;2023-05-14T13:43:46;27.60;38.70
1337;DHT22;662;48.814;9.318;2023-05-14T13:46:13;27.90;37.90
1337;DHT22;662;48.814;9.318;2023-05-14T13:48:38;28.20;37.10
1337;DHT22;662;48.814;9.318;2023-05-14T13:51:04;28.60;36.90
1337;DHT22;662;48.814;9.318;2023-05-14T13:53:30;28.80;35.20
1337;DHT22;662;48.814;9.318;2023-05-14T13:55:55;29.00;35.60
1337;DHT22;662;48.814;9.318;2023-05-14T13:58:24;29.40;35.50
1337;DHT22;662;48.814;9.318;2023-05-14T14:00:50;29.70;35.50
1337;DHT22;662;48.814;9.318;2023-05-14T14:03:16;29.60;34.00
1337;DHT22;662;48.814;9.318;2023-05-14T14:05:42;29.20;34.20
1337;DHT22;662;48.814;9.318;2023-05-14T14:08:07;29.10;35.00
1337;DHT22;662;48.814;9.318;2023-05-14T14:10:33;28.80;35.20
1337;DHT22;662;48.814;9.318;2023-05-14T14:12:59;28.90;35.60
1337;DHT22;662;48.814;9.318;2023-05-14T14:15:24;29.10;35.40
1337;DHT22;662;48.814;9.318;2023-05-14T14:17:50;29.40;35.20
1337;DHT22;662;48.814;9.318;2023-05-14T14:20:16;29.50;34.70
1337;DHT22;662;48.814;9.318;2023-05-14T14:22:42;29.60;34.80
1337;DHT22;662;48.814;9.318;2023-05-14T14:25:09;29.70;34.40
1337;DHT22;662;48.814;9.318;2023-05-14T14:27:35;29.50;33.90
1337;DHT22;662;48.814;9.318;2023-05-14T14:30:06;28.80;34.20
1337;DHT22;662;48.814;9.318;2023-05-14T14:32:32;28.50;35.20
1337;DHT22;662;48.814;9.318;2023-05-14T14:34:58;28.20;34.80
1337;DHT22;662;48.814;9.318;2023-05-14T14:37:23;27.80;36.10
1337;DHT22;662;48.814;9.318;2023-05-14T14:39:49;27.60;35.90
1337;DHT22;662;48.814;9.318;2023-05-14T14:42:14;27.00;36.30
1337;DHT22;662;48.814;9.318;2023-05-14T14:44:40;26.40;37.10
1337;DHT22;662;48.814;9.318;2023-05-14T14:47:06;25.70;37.80
1337;DHT22;662;48.814;9.318;2023-05-14T14:49:31;25.20;38.70
1337;DHT22;662;48.814;9.318;2023-05-14T14:51:57;24.70;40.10
1337;DHT22;662;48.814;9.318;2023-05-14T14:54:23;24.30;40.70
1337;DHT22;662;48.814;9.318;2023-05-14T14:56:48;23.90;41.50
1337;DHT22;662;48.814;9.318;2023-05-14T14:59:16;23.40;42.00
1337;DHT22;662;48.814;9.318;2023-05-14T15:01:42;23.00;42.40
1337;DHT22;662;48.814;9.318;2023-05-14T15:04:08;22.80;43.00
1337;DHT22;662;48.814;9.318;2023-05-14T15:06:33;22.50;43.70
1337;DHT22;662;48.814;9.318;2023-05-14T15:08:59;22.20;44.10
1337;DHT22;662;48.814;9.318;2023-05-14T15:11:25;22.10;44.70
1337;DHT22;662;48.814;9.318;2023-05-14T15:13:50;22.10;45.20
1337;DHT22;662;48.814;9.318;2023-05-14T15:16:16;21.90;44.40
1337;DHT22;662;48.814;9.318;2023-05-14T15:18:42;21.70;43.80
1337;DHT22;662;48.814;9.318;2023-05-14T15:21:07;21.40;44.60
1337;DHT22;662;48.814;9.318;2023-05-14T15:23:33;21.30;45.10
1337;DHT22;662;48.814;9.318;2023-05-14T15:25:59;21.20;45.20
1337;DHT22;662;48.814;9.318;2023-05-14T15:28:25;21.10;45.40
1337;DHT22;662;48.814;9.318;2023-05-14T15:30:50;21.00;45.70
1337;DHT22;662;48.814;9.318;2023-05-14T15:33:16;20.90;46.00
1337;DHT22;662;48.814;9.318;2023-05-14T15:35:44;20.80;46.30
1337;DHT22;662;48.814;9.318;2023-05-14T15:38:09;20.70;46.50
1337;DHT22;662;48.814;9.318;2023-05-14T15:40:35;20.70;46.90
1337;DHT22;662;48.814;9.318;2023-05-14T15:43:00;20.60;47.20
1337;DHT22;662;48.814;9.318;2023-05-14T15:45:26;20.50;47.00
1337;DHT22;662;48.814;9.318;2023-05-14T15:47:52;20.40;46.90
1337;DHT22;662;48.814;9.318;2023-05-14T15:50:18;20.40;47.10
1337;DHT22;662;48.814;9.318;2023-05-14T15:52:44;20.40;47.40
1337;DHT22;662;48.814;9.318;2023-05-14T15:55:10;20.40;47.70
1337;DHT22;662;48.814;9.318;2023-05-14T15:57:36;20.50;47.80
1337;DHT22;662;48.814;9.318;2023-05-14T16:00:02;20.60;48.10
1337;DHT22;662;48.814;9.318;2023-05-14T16:02:38;20.70;47.90
1337;DHT22;662;48.814;9.318;2023-05-14T16:05:03;20.70;47.70
1337;DHT22;662;48.814;9.318;2023-05-14T16:07:30;20.80;47.90
1337;DHT22;662;48.814;9.318;2023-05-14T16:09:55;20.90;47.80
1337;DHT22;662;48.814;9.318;2023-05-14T16:12:21;20.90;47.60
1337;DHT22;662;48.814;9.318;2023-05-14T16:14:46;20.90;47.50
1337;DHT22;662;48.814;9.318;2023-05-14T16:17:12;20.90;47.50
1337;DHT22;662;48.814;9.318;2023-05-14T16:19:38;20.90;47.30
1337;DHT22;662;48.814;9.318;2023-05-14T16:22:04;20.80;47.20
1337;DHT22;662;48.814;9.318;2023-05-14T16:24:30;20.80;47.30
1337;DHT22;662;48.814;9.318;2023-05-14T16:26:56;20.80;47.20
1337;DHT22;662;48.814;9.318;2023-05-14T16:29:22;20.70;47.10